Purdue University Airport Lafayette US
ICAO: KLAF
IATA: LAF
Category: Medium
Scheduled Services: No

Elevation: 606 ft
TransAlt. 18000 ft.

Airport Communications:
ASOS:127.75
ATIS:127.75
CHICAGO CNTR:123.85
CTAF:119.6
GND:121.9
TERRE HAUTE RDO:122.2
LAFAYETTE TWR:119.6
UNICOM:122.95

KLAF Zoom In..

Runways:

(A) RW 05 length 4225 ft width 100 ft
---- / hdg 51

(B) RW 10 length 6600 ft width 150 ft
ILS 110.30 / hdg 100

(C) RW 23 length 4225 ft width 100 ft
---- / hdg 231

(D) RW 28 length 6600 ft width 150 ft
---- / hdg 280

Location; KLAF
Day. 30 / Time. 22.54 Zulu
* Altimeter: 29.93
* Temperature: 00° c. 32°f.
* Wind from: 320° Speed 14 kn with Gusts up to 24 kn.
Dewpoint: -06° c.
Visibility: 10 Statute Miles.
Clouds: Overcast 2500 ft.

KLAF 302254Z 32014G24KT 10SM OVC025 00/M06 A2993 RMK AO2 PK WND 33029/2206 SLP141 T00001056

Going to: --> -->


Wind From 320°
Speed 14 kn.

 
 
jpsmedia worldairports.se 2020   terms of use